Time;durP1;ratioP1;P1;durP2;ratioP2;P2;SDS_P1;SDS_P2;PMS_P1;PMS_P2;Temp;Humidity;BMP_temperature;BMP_pressure;BME280_temperature;BME280_humidity;BME280_pressure;Samples;Min_cycle;Max_cycle;Signal;HPM_P1;HPM_P2
2022/12/09 00:01:58;;;;;;;2.53;1.80;;;-1.50;99.90;;;;;;4880256;29;20139;-71
2022/12/09 00:04:24;;;;;;;3.92;2.50;;;-1.50;99.90;;;;;;4872079;29;20055;-71
2022/12/09 00:06:49;;;;;;;3.65;2.47;;;-1.50;99.90;;;;;;4897319;29;20605;-70
2022/12/09 00:09:16;;;;;;;2.97;1.98;;;-1.30;99.90;;;;;;4898267;29;20188;-70
2022/12/09 00:11:42;;;;;;;3.17;2.10;;;-1.30;99.90;;;;;;4915404;29;20036;-71
2022/12/09 00:14:12;;;;;;;2.40;1.65;;;-1.50;99.90;;;;;;4914192;29;20051;-71
2022/12/09 00:16:38;;;;;;;2.22;1.52;;;-1.50;99.90;;;;;;4914496;29;20195;-71
2022/12/09 00:19:06;;;;;;;2.58;1.77;;;-1.50;99.90;;;;;;4898400;29;20055;-71
2022/12/09 00:21:33;;;;;;;2.25;1.40;;;-1.50;99.90;;;;;;4915261;29;20092;-71
2022/12/09 00:24:01;;;;;;;2.10;1.52;;;-1.60;99.90;;;;;;4897409;29;20398;-72
2022/12/09 00:26:27;;;;;;;2.10;1.48;;;-1.70;99.90;;;;;;4912437;29;20066;-70
2022/12/09 00:28:54;;;;;;;2.13;1.63;;;-1.50;99.90;;;;;;4915146;29;20060;-70
2022/12/09 00:31:23;;;;;;;1.98;1.50;;;-1.80;99.90;;;;;;4899118;29;20060;-71
2022/12/09 00:33:49;;;;;;;2.45;1.67;;;-1.70;99.90;;;;;;4895854;29;20044;-71
2022/12/09 00:36:18;;;;;;;1.92;1.40;;;-1.60;99.90;;;;;;4896890;29;20103;-71
2022/12/09 00:38:45;;;;;;;2.42;1.60;;;-1.70;99.90;;;;;;4898087;29;20040;-71
2022/12/09 00:41:11;;;;;;;2.17;1.50;;;-1.60;99.90;;;;;;4883235;29;20044;-70
2022/12/09 00:43:37;;;;;;;2.33;1.50;;;-1.50;99.90;;;;;;4915852;29;20147;-71
2022/12/09 00:46:03;;;;;;;1.92;1.50;;;-1.40;99.90;;;;;;4898401;29;20091;-72
2022/12/09 00:48:29;;;;;;;1.98;1.45;;;-1.40;99.90;;;;;;4898154;29;20054;-72
2022/12/09 00:50:55;;;;;;;2.65;1.63;;;-1.40;99.90;;;;;;4898486;29;20079;-70
2022/12/09 00:53:21;;;;;;;2.28;1.63;;;-1.60;99.90;;;;;;4882999;29;20516;-71
2022/12/09 00:55:47;;;;;;;2.20;1.60;;;-1.60;99.90;;;;;;4897901;29;20118;-71
2022/12/09 00:58:13;;;;;;;2.25;1.50;;;-1.60;99.90;;;;;;4882616;29;20212;-71
2022/12/09 01:00:39;;;;;;;2.70;1.90;;;-1.50;99.90;;;;;;4897938;29;20060;-71
2022/12/09 01:03:05;;;;;;;;;;;-1.70;99.90;;;;;;4898557;29;20044;-71
2022/12/09 01:05:34;;;;;;;2.92;2.03;;;-1.60;99.90;;;;;;4882300;29;20388;-71
2022/12/09 01:08:00;;;;;;;2.90;1.73;;;-1.80;99.90;;;;;;4897730;29;20059;-70
2022/12/09 01:10:25;;;;;;;2.45;1.63;;;-1.70;99.90;;;;;;4898041;29;20048;-70
2022/12/09 01:12:51;;;;;;;2.85;1.88;;;-1.70;99.90;;;;;;4898169;29;20382;-70
2022/12/09 01:15:16;;;;;;;3.05;1.90;;;-1.90;99.90;;;;;;4882446;29;20095;-71
2022/12/09 01:17:42;;;;;;;2.88;1.75;;;-2.00;99.90;;;;;;4897917;29;20080;-71
2022/12/09 01:20:09;;;;;;;3.22;1.73;;;-2.00;99.90;;;;;;4896043;29;20143;-71
2022/12/09 01:22:35;;;;;;;2.40;1.60;;;-1.90;99.90;;;;;;4897736;29;20063;-71
2022/12/09 01:25:02;;;;;;;2.75;1.50;;;-1.70;99.90;;;;;;4882724;29;20044;-70
2022/12/09 01:27:30;;;;;;;1.95;1.20;;;-1.80;99.90;;;;;;4914703;29;20036;-71
2022/12/09 01:29:56;;;;;;;2.22;1.20;;;-1.90;99.90;;;;;;4898034;29;20130;-71
2022/12/09 01:32:21;;;;;;;2.08;1.30;;;-1.80;99.90;;;;;;4914944;29;20127;-70
2022/12/09 01:34:47;;;;;;;2.22;1.30;;;-1.70;99.90;;;;;;4882644;29;20092;-70
2022/12/09 01:37:13;;;;;;;2.58;1.60;;;-1.80;99.90;;;;;;4896773;29;20047;-71
2022/12/09 01:39:39;;;;;;;2.58;1.45;;;-1.40;99.90;;;;;;4896160;29;20457;-70
2022/12/09 01:42:05;;;;;;;3.00;1.67;;;-1.40;99.90;;;;;;4881230;29;20052;-70
2022/12/09 01:44:32;;;;;;;2.67;1.70;;;-1.60;99.90;;;;;;4897409;29;20478;-71
2022/12/09 01:47:00;;;;;;;2.75;1.70;;;-1.40;99.90;;;;;;4896308;29;20052;-71
2022/12/09 01:49:37;;;;;;;5.07;3.25;;;-1.50;99.90;;;;;;4896925;29;20079;-70
2022/12/09 01:52:14;;;;;;;3.85;2.45;;;-1.20;99.90;;;;;;4897054;29;20052;-71
2022/12/09 01:54:42;;;;;;;3.75;2.40;;;-1.00;99.90;;;;;;4896178;29;20501;-71
2022/12/09 01:57:08;;;;;;;5.18;2.88;;;-1.10;99.90;;;;;;4897495;29;20060;-71
2022/12/09 01:59:35;;;;;;;;;;;-1.00;99.90;;;;;;4882763;29;20052;-71
2022/12/09 02:02:03;;;;;;;6.70;4.10;;;-1.20;99.90;;;;;;4880969;29;20384;-71
2022/12/09 02:04:33;;;;;;;5.60;3.33;;;-0.90;99.90;;;;;;4879992;29;20040;-70
2022/12/09 02:07:02;;;;;;;4.80;3.03;;;-1.30;99.90;;;;;;4896390;29;20063;-70
2022/12/09 02:09:28;;;;;;;5.28;3.10;;;-0.90;99.90;;;;;;4882061;29;20108;-71
2022/12/09 02:12:04;;;;;;;4.03;2.65;;;-1.10;99.90;;;;;;4894720;29;20059;-71
2022/12/09 02:14:56;;;;;;;3.75;2.28;;;-1.10;99.90;;;;;;4897450;29;20062;-70
2022/12/09 02:18:03;;;;;;;3.75;2.40;;;-1.30;99.90;;;;;;4874886;29;20131;-71
2022/12/09 02:20:40;;;;;;;3.83;2.28;;;-1.00;99.90;;;;;;4820605;29;20140;-71
2022/12/09 02:23:08;;;;;;;;;;;-1.40;99.90;;;;;;4826526;29;20050;-71
2022/12/09 02:25:34;;;;;;;3.55;2.15;;;-1.40;99.90;;;;;;4854169;29;20373;-71
2022/12/09 02:28:19;;;;;;;3.53;2.20;;;-1.40;99.90;;;;;;4896783;29;20059;-71
2022/12/09 02:31:03;;;;;;;3.38;2.00;;;-1.20;99.90;;;;;;4881934;29;20297;-71
2022/12/09 02:34:08;;;;;;;3.30;2.22;;;-1.50;99.90;;;;;;4894439;29;20048;-71
2022/12/09 02:36:56;;;;;;;3.70;2.17;;;-1.30;99.90;;;;;;4917757;29;20441;-71
2022/12/09 02:39:30;;;;;;;3.42;2.25;;;-1.20;99.90;;;;;;4899276;29;20450;-71
2022/12/09 02:41:58;;;;;;;3.50;2.15;;;-1.20;99.90;;;;;;4899587;29;20154;-70
2022/12/09 02:44:24;;;;;;;3.22;2.10;;;-1.40;99.90;;;;;;4882048;29;20075;-71
2022/12/09 02:46:52;;;;;;;2.35;1.50;;;-1.30;99.90;;;;;;4896490;29;20048;-70
2022/12/09 02:49:20;;;;;;;3.17;1.88;;;-1.10;99.90;;;;;;4893817;29;20067;-71
2022/12/09 02:51:48;;;;;;;2.72;1.58;;;-1.20;99.90;;;;;;4910226;29;20075;-71
2022/12/09 02:54:16;;;;;;;2.45;1.63;;;-1.20;99.90;;;;;;4892451;29;20116;-71
2022/12/09 02:56:54;;;;;;;2.67;1.60;;;-1.60;99.90;;;;;;4908423;29;22196;-71
2022/12/09 02:59:20;;;;;;;2.58;1.70;;;-1.70;99.90;;;;;;4895990;29;20056;-71
2022/12/09 03:02:01;;;;;;;3.40;2.10;;;-1.70;99.90;;;;;;4893877;29;20114;-71
2022/12/09 03:04:29;;;;;;;2.75;1.83;;;-1.50;99.90;;;;;;4894070;29;20435;-71
2022/12/09 03:07:00;;;;;;;2.65;1.67;;;-1.30;99.90;;;;;;4879359;29;20047;-71
2022/12/09 03:09:32;;;;;;;2.97;1.80;;;-1.20;99.90;;;;;;4895841;29;20094;-71
2022/12/09 03:12:03;;;;;;;3.78;2.50;;;-1.60;99.90;;;;;;4894587;29;20052;-71
2022/12/09 03:14:36;;;;;;;3.55;2.30;;;-1.20;99.90;;;;;;4879487;29;20086;-71
2022/12/09 03:17:07;;;;;;;2.70;1.88;;;-1.30;99.90;;;;;;4908482;29;20070;-71
2022/12/09 03:19:41;;;;;;;2.95;1.90;;;-1.40;99.90;;;;;;4878279;29;20068;-72
2022/12/09 03:22:16;;;;;;;2.80;1.73;;;-1.50;99.90;;;;;;4892962;29;20040;-71
2022/12/09 03:25:01;;;;;;;3.03;1.90;;;-1.30;99.90;;;;;;4892729;29;20127;-72
2022/12/09 03:27:39;;;;;;;3.88;2.20;;;-1.40;99.90;;;;;;4890941;29;21912;-72
2022/12/09 03:30:07;;;;;;;3.65;2.22;;;-1.30;99.90;;;;;;4894068;29;20051;-71
2022/12/09 03:32:33;;;;;;;4.03;2.17;;;-1.60;99.90;;;;;;4909721;29;20086;-70
2022/12/09 03:35:12;;;;;;;3.42;2.08;;;-1.50;99.90;;;;;;4909713;29;20493;-72
2022/12/09 03:37:40;;;;;;;3.63;2.40;;;-1.70;99.90;;;;;;4894542;29;20187;-72
2022/12/09 03:40:09;;;;;;;3.28;1.90;;;-1.70;99.90;;;;;;4879215;29;21688;-72
2022/12/09 03:42:57;;;;;;;4.05;2.60;;;-1.60;99.90;;;;;;4893538;29;20056;-71
2022/12/09 03:45:23;;;;;;;5.32;2.70;;;-1.60;99.90;;;;;;4910959;29;20063;-73
2022/12/09 03:47:49;;;;;;;;;;;-1.30;99.90;;;;;;4876710;29;20087;-72
2022/12/09 03:50:15;;;;;;;3.67;2.22;;;-1.20;99.90;;;;;;4893830;29;19955;-72
2022/12/09 03:52:46;;;;;;;3.85;2.20;;;-1.40;99.90;;;;;;4894638;29;20083;-72
2022/12/09 03:55:41;;;;;;;3.33;2.20;;;-1.50;99.90;;;;;;4909724;29;20111;-72
2022/12/09 03:58:09;;;;;;;3.45;2.20;;;-1.10;99.90;;;;;;4846571;29;20060;-72
2022/12/09 04:00:36;;;;;;;4.15;2.78;;;-1.50;99.90;;;;;;4859935;29;20062;-72
2022/12/09 04:03:03;;;;;;;4.15;2.55;;;-1.30;99.90;;;;;;4873957;29;20383;-72
2022/12/09 04:05:29;;;;;;;4.35;2.78;;;-1.30;99.90;;;;;;4863925;29;20049;-72
2022/12/09 04:07:55;;;;;;;5.05;2.92;;;-1.50;99.90;;;;;;4865777;29;20044;-71
2022/12/09 04:10:21;;;;;;;4.68;2.88;;;-1.70;99.90;;;;;;4886020;29;20045;-72
2022/12/09 04:12:46;;;;;;;3.10;1.98;;;-1.30;99.90;;;;;;4881142;29;20115;-72
2022/12/09 04:15:13;;;;;;;4.30;2.20;;;-1.50;99.90;;;;;;4894544;29;20048;-71
2022/12/09 04:17:38;;;;;;;5.43;2.88;;;-1.70;99.90;;;;;;4912153;29;20473;-71
2022/12/09 04:20:05;;;;;;;3.75;2.35;;;-1.40;99.90;;;;;;4916305;29;20060;-71
2022/12/09 04:22:31;;;;;;;3.45;2.40;;;-1.70;99.90;;;;;;4866217;29;20127;-71
2022/12/09 04:24:56;;;;;;;3.50;2.28;;;-1.70;99.90;;;;;;4880694;29;20132;-72
2022/12/09 04:27:22;;;;;;;4.03;2.70;;;-1.70;99.90;;;;;;4885892;29;20494;-71
2022/12/09 04:29:48;;;;;;;4.95;2.67;;;-1.60;99.90;;;;;;4882946;29;20057;-73
2022/12/09 04:32:14;;;;;;;;;;;-1.70;99.90;;;;;;4858192;29;20055;-71
2022/12/09 04:34:40;;;;;;;6.03;3.33;;;-1.60;99.90;;;;;;4897491;29;19970;-72
2022/12/09 04:37:05;;;;;;;4.50;2.88;;;-1.90;99.90;;;;;;4886775;29;20080;-71
2022/12/09 04:39:31;;;;;;;6.40;3.00;;;-1.80;99.90;;;;;;4865511;29;20048;-71
2022/12/09 04:41:57;;;;;;;5.10;3.20;;;-1.90;99.90;;;;;;4895637;29;20340;-71
2022/12/09 04:44:22;;;;;;;5.70;3.30;;;-1.90;99.90;;;;;;4888933;29;20308;-71
2022/12/09 04:46:48;;;;;;;5.70;3.35;;;-1.60;99.90;;;;;;4895128;29;20303;-71
2022/12/09 04:49:14;;;;;;;7.85;4.28;;;-1.70;99.90;;;;;;4915300;29;20083;-71
2022/12/09 04:51:39;;;;;;;6.18;3.65;;;-1.70;99.90;;;;;;4893515;29;20048;-71
2022/12/09 04:54:05;;;;;;;5.75;3.45;;;-2.00;99.90;;;;;;4895922;29;20135;-72
2022/12/09 04:56:31;;;;;;;5.90;3.70;;;-2.10;99.90;;;;;;4880497;29;20050;-72
2022/12/09 04:58:57;;;;;;;5.07;3.33;;;-1.90;99.90;;;;;;4897734;29;20048;-72
2022/12/09 05:01:23;;;;;;;6.00;3.80;;;-2.30;99.90;;;;;;4881463;29;20390;-71
2022/12/09 05:03:51;;;;;;;4.97;3.20;;;-2.20;99.90;;;;;;4893884;29;20044;-72
2022/12/09 05:06:18;;;;;;;7.53;4.20;;;-2.30;99.90;;;;;;4897538;29;20036;-72
2022/12/09 05:08:44;;;;;;;6.97;3.92;;;-2.30;99.90;;;;;;4896474;29;20039;-71
2022/12/09 05:11:12;;;;;;;8.02;4.38;;;-2.10;99.90;;;;;;4897447;29;20055;-72
2022/12/09 05:13:37;;;;;;;6.93;4.45;;;-2.10;99.90;;;;;;4882891;29;20066;-72
2022/12/09 05:16:09;;;;;;;6.97;4.30;;;-2.20;99.90;;;;;;4864743;29;20750;-72
2022/12/09 05:18:35;;;;;;;8.25;5.18;;;-2.20;99.90;;;;;;4866129;29;20793;-71
2022/12/09 05:21:09;;;;;;;9.10;4.90;;;-2.20;99.90;;;;;;4896901;29;20055;-72
2022/12/09 05:23:35;;;;;;;8.27;5.05;;;-1.80;99.90;;;;;;4897065;29;20040;-71
2022/12/09 05:26:03;;;;;;;9.38;5.32;;;-1.90;99.90;;;;;;4914410;29;20047;-70
2022/12/09 05:28:29;;;;;;;7.57;4.55;;;-1.90;99.90;;;;;;4897978;29;20048;-71
2022/12/09 05:31:01;;;;;;;5.93;3.90;;;-1.70;99.90;;;;;;4895463;29;20044;-71
2022/12/09 05:33:28;;;;;;;6.25;3.42;;;-1.70;99.90;;;;;;4896489;29;20050;-72
2022/12/09 05:35:54;;;;;;;5.38;3.38;;;-1.80;99.90;;;;;;4897413;29;20064;-72
2022/12/09 05:38:19;;;;;;;6.45;4.15;;;-1.80;99.90;;;;;;4912884;29;20072;-71
2022/12/09 05:40:45;;;;;;;5.55;3.50;;;-2.00;99.90;;;;;;4894242;29;20078;-71
2022/12/09 05:43:11;;;;;;;5.05;3.45;;;-1.80;99.90;;;;;;4898403;29;20395;-71
2022/12/09 05:45:36;;;;;;;5.20;3.17;;;-1.90;99.90;;;;;;4881315;29;20508;-71
2022/12/09 05:48:02;;;;;;;4.35;2.85;;;-2.00;99.90;;;;;;4897398;29;20076;-71
2022/12/09 05:50:28;;;;;;;4.82;2.80;;;-1.60;99.90;;;;;;4892545;29;20084;-71
2022/12/09 05:52:53;;;;;;;4.55;2.80;;;-1.60;99.90;;;;;;4912377;29;20040;-71
2022/12/09 05:55:19;;;;;;;4.30;2.67;;;-1.80;99.90;;;;;;4898706;29;20051;-71
2022/12/09 05:57:45;;;;;;;3.95;2.28;;;-1.70;99.90;;;;;;4885247;29;20264;-71
2022/12/09 06:00:11;;;;;;;4.35;2.67;;;-1.50;99.90;;;;;;4915788;29;20052;-71
2022/12/09 06:02:37;;;;;;;3.47;2.28;;;-1.70;99.90;;;;;;4900118;29;20048;-71
2022/12/09 06:05:03;;;;;;;3.63;2.40;;;-1.70;99.90;;;;;;4886098;29;20071;-71
2022/12/09 06:07:29;;;;;;;3.92;2.35;;;-1.60;99.90;;;;;;4885249;29;20047;-71
2022/12/09 06:09:55;;;;;;;4.00;2.40;;;-1.70;99.90;;;;;;4899699;29;20051;-71
2022/12/09 06:12:20;;;;;;;4.03;2.53;;;-1.70;99.90;;;;;;4898086;29;20060;-71
2022/12/09 06:14:46;;;;;;;4.57;2.85;;;-1.90;99.90;;;;;;4868397;29;20417;-71
2022/12/09 06:17:12;;;;;;;5.32;3.22;;;-1.90;99.90;;;;;;4899040;29;20163;-71
2022/12/09 06:19:37;;;;;;;5.30;3.22;;;-1.80;99.90;;;;;;4900723;29;20509;-71
2022/12/09 06:22:03;;;;;;;5.47;3.03;;;-2.10;99.90;;;;;;4899262;29;20347;-71
2022/12/09 06:24:29;;;;;;;4.80;2.75;;;-2.00;99.90;;;;;;4883642;29;20378;-71
2022/12/09 06:26:55;;;;;;;4.70;2.67;;;-2.20;99.90;;;;;;4900995;29;20055;-71
2022/12/09 06:29:20;;;;;;;4.63;2.78;;;-2.50;99.90;;;;;;4896742;29;20048;-72
2022/12/09 06:31:46;;;;;;;5.93;3.35;;;-2.60;99.90;;;;;;4893520;29;20047;-72
2022/12/09 06:34:12;;;;;;;5.07;3.22;;;-2.50;99.90;;;;;;4895136;29;20103;-72
2022/12/09 06:36:37;;;;;;;5.50;3.40;;;-2.40;99.90;;;;;;4888919;29;20679;-72
2022/12/09 06:39:04;;;;;;;5.88;3.28;;;-2.60;99.90;;;;;;4874901;29;20086;-73
2022/12/09 06:41:30;;;;;;;6.82;4.10;;;-2.50;99.90;;;;;;4899476;29;20116;-72
2022/12/09 06:43:57;;;;;;;6.53;4.07;;;-2.20;99.90;;;;;;4899863;29;20155;-72
2022/12/09 06:46:23;;;;;;;8.10;4.50;;;-2.60;99.90;;;;;;4899188;29;20766;-71
2022/12/09 06:48:49;;;;;;;6.45;3.78;;;-2.10;99.90;;;;;;4877350;29;20036;-71
2022/12/09 06:51:16;;;;;;;6.72;3.80;;;-2.30;99.90;;;;;;4877979;29;20055;-70
2022/12/09 06:53:41;;;;;;;6.15;3.50;;;-2.40;99.90;;;;;;4895696;29;20071;-71
2022/12/09 06:56:08;;;;;;;4.97;3.03;;;-2.30;99.90;;;;;;4877540;29;20092;-71
2022/12/09 06:58:35;;;;;;;4.65;2.90;;;-1.90;99.90;;;;;;4894510;29;20858;-71
2022/12/09 07:01:19;;;;;;;4.20;2.65;;;-2.20;99.90;;;;;;4894664;29;20592;-71
2022/12/09 07:03:47;;;;;;;4.15;2.38;;;-2.10;99.90;;;;;;4895214;29;20047;-72
2022/12/09 07:06:23;;;;;;;3.97;2.35;;;-1.90;99.90;;;;;;4896456;29;20032;-71
2022/12/09 07:08:49;;;;;;;3.25;2.10;;;-2.20;99.90;;;;;;4893764;29;20071;-72
2022/12/09 07:11:15;;;;;;;3.28;2.00;;;-1.90;99.90;;;;;;4895932;29;20138;-72
2022/12/09 07:13:40;;;;;;;5.25;2.92;;;-1.90;99.90;;;;;;4879794;29;20486;-71
2022/12/09 07:16:06;;;;;;;5.20;3.28;;;-2.00;99.90;;;;;;4864249;29;20205;-71
2022/12/09 07:18:32;;;;;;;4.22;2.45;;;-2.20;99.90;;;;;;4895949;29;20072;-72
2022/12/09 07:21:04;;;;;;;5.50;3.27;;;-2.30;99.90;;;;;;4879124;29;20051;-72
2022/12/09 07:23:30;;;;;;;6.25;3.60;;;-1.90;99.90;;;;;;4891284;29;20332;-72
2022/12/09 07:25:56;;;;;;;6.13;3.17;;;-1.90;99.90;;;;;;4892909;29;20177;-71
2022/12/09 07:28:22;;;;;;;5.00;2.97;;;-2.00;99.90;;;;;;4895385;29;20047;-73
2022/12/09 07:30:47;;;;;;;5.93;3.33;;;-1.90;99.90;;;;;;4895687;29;20048;-71
2022/12/09 07:33:13;;;;;;;4.63;2.67;;;-2.00;99.90;;;;;;4862929;29;20308;-71
2022/12/09 07:35:39;;;;;;;4.90;2.97;;;-2.20;99.90;;;;;;4891466;29;20352;-72
2022/12/09 07:38:04;;;;;;;5.27;2.77;;;-2.20;99.90;;;;;;4888064;29;20304;-72
2022/12/09 07:40:30;;;;;;;5.22;2.90;;;-2.20;99.90;;;;;;4893610;29;20048;-74
2022/12/09 07:42:56;;;;;;;3.28;2.15;;;-2.20;99.90;;;;;;4895881;29;20111;-72
2022/12/09 07:45:21;;;;;;;4.18;2.67;;;-2.10;99.90;;;;;;4894837;29;20498;-71
2022/12/09 07:47:47;;;;;;;4.50;2.70;;;-1.90;99.90;;;;;;4879412;29;20040;-71
2022/12/09 07:50:13;;;;;;;4.82;3.10;;;-2.10;99.90;;;;;;4909718;29;20166;-71
2022/12/09 07:52:38;;;;;;;5.40;3.10;;;-2.20;99.90;;;;;;4879330;29;20454;-72
2022/12/09 07:55:05;;;;;;;3.70;2.23;;;-1.90;99.90;;;;;;4893906;29;20060;-72
2022/12/09 07:57:32;;;;;;;4.70;2.83;;;-2.00;99.90;;;;;;4879238;29;20313;-71
2022/12/09 07:59:57;;;;;;;4.45;2.53;;;-2.20;99.90;;;;;;4877610;29;20071;-72
2022/12/09 08:02:23;;;;;;;4.00;2.40;;;-1.70;99.90;;;;;;4894541;29;20040;-72
2022/12/09 08:04:49;;;;;;;5.27;3.37;;;-2.10;99.90;;;;;;4894562;29;20314;-72
2022/12/09 08:07:14;;;;;;;4.88;2.97;;;-1.90;99.90;;;;;;4879745;29;20292;-72
2022/12/09 08:09:40;;;;;;;5.43;3.30;;;-1.60;99.90;;;;;;4892419;29;20055;-72
2022/12/09 08:12:06;;;;;;;4.82;3.05;;;-1.60;99.90;;;;;;4891150;29;20098;-71
2022/12/09 08:14:32;;;;;;;4.88;2.97;;;-1.90;99.90;;;;;;4877229;29;20052;-71
2022/12/09 08:16:57;;;;;;;5.63;3.10;;;-1.50;99.90;;;;;;4910364;29;20158;-71
2022/12/09 08:19:23;;;;;;;4.88;3.00;;;-1.80;99.90;;;;;;4897864;29;20056;-71
2022/12/09 08:21:48;;;;;;;5.60;3.28;;;-1.80;99.90;;;;;;4896563;29;20076;-72
2022/12/09 08:24:14;;;;;;;5.25;3.25;;;-1.80;99.90;;;;;;4895228;29;20077;-72
2022/12/09 08:26:40;;;;;;;4.03;2.60;;;-1.50;99.90;;;;;;4892874;29;20151;-71
2022/12/09 08:29:08;;;;;;;4.40;2.67;;;-1.40;99.90;;;;;;4875400;29;20048;-71
2022/12/09 08:31:34;;;;;;;4.40;2.70;;;-1.50;99.90;;;;;;4878903;29;21729;-71
2022/12/09 08:34:02;;;;;;;5.88;3.50;;;-1.10;99.90;;;;;;4878072;29;20051;-71
2022/12/09 08:36:28;;;;;;;6.47;4.20;;;-1.00;99.90;;;;;;4893250;29;20155;-71
2022/12/09 08:38:59;;;;;;;9.47;5.50;;;-0.90;99.90;;;;;;4893395;29;20052;-71
2022/12/09 08:41:36;;;;;;;8.27;5.10;;;-0.90;99.90;;;;;;4893726;29;20328;-71
2022/12/09 08:44:08;;;;;;;;;;;-0.90;99.90;;;;;;4894560;29;20073;-71
2022/12/09 08:46:35;;;;;;;14.35;7.88;;;-0.70;99.90;;;;;;4891568;29;19919;-72
2022/12/09 08:49:01;;;;;;;14.68;7.85;;;-0.80;99.90;;;;;;4894665;29;20192;-72
2022/12/09 08:51:28;;;;;;;12.57;6.72;;;-0.80;99.90;;;;;;4893390;29;20135;-72
2022/12/09 08:53:55;;;;;;;10.90;6.13;;;-0.50;99.90;;;;;;4909156;29;20080;-72
2022/12/09 08:56:21;;;;;;;11.15;5.68;;;-0.60;99.90;;;;;;4907167;29;20040;-71
2022/12/09 08:58:47;;;;;;;8.20;5.00;;;-0.80;99.90;;;;;;4892846;29;20055;-71
2022/12/09 09:01:18;;;;;;;6.72;4.03;;;-0.80;99.90;;;;;;4895523;29;20044;-71
2022/12/09 09:03:45;;;;;;;7.72;4.63;;;-0.70;99.90;;;;;;4892255;29;20096;-71
2022/12/09 09:06:11;;;;;;;9.02;5.50;;;-0.50;99.90;;;;;;4889187;29;20556;-71
2022/12/09 09:08:38;;;;;;;10.20;5.40;;;-0.20;99.90;;;;;;4877059;29;20063;-71
2022/12/09 09:11:09;;;;;;;;;;;-0.20;99.90;;;;;;4913931;29;20059;-71
2022/12/09 09:13:36;;;;;;;19.20;11.00;;;-0.40;99.90;;;;;;4874656;29;19934;-71
2022/12/09 09:16:02;;;;;;;20.50;11.68;;;-0.30;99.90;;;;;;4875436;29;20086;-71
2022/12/09 09:18:28;;;;;;;29.45;15.00;;;-0.10;99.90;;;;;;4893849;29;20126;-71
2022/12/09 09:20:57;;;;;;;31.52;16.30;;;-0.20;99.90;;;;;;4877750;29;20044;-71
2022/12/09 09:23:24;;;;;;;25.90;13.77;;;0.20;99.90;;;;;;4894714;29;20036;-71
2022/12/09 09:25:49;;;;;;;24.35;13.10;;;-0.10;99.90;;;;;;4878812;29;20040;-71
2022/12/09 09:28:15;;;;;;;21.35;11.73;;;-0.10;99.90;;;;;;4892795;29;20048;-71
2022/12/09 09:30:41;;;;;;;22.25;12.25;;;0.00;99.90;;;;;;4878934;29;20508;-71
2022/12/09 09:33:07;;;;;;;19.20;10.85;;;0.40;99.90;;;;;;4877573;29;20140;-70
2022/12/09 09:35:33;;;;;;;;;;;0.40;99.90;;;;;;4905531;29;20079;-68
2022/12/09 09:37:59;;;;;;;27.42;14.32;;;0.30;99.90;;;;;;4897034;29;20821;-68
2022/12/09 09:40:28;;;;;;;28.80;15.07;;;0.40;99.90;;;;;;4876220;29;20514;-68
2022/12/09 09:42:56;;;;;;;23.13;13.25;;;0.40;99.90;;;;;;4892639;29;20036;-68
2022/12/09 09:45:22;;;;;;;20.48;11.43;;;0.00;99.90;;;;;;4890140;29;20052;-69
2022/12/09 09:47:50;;;;;;;;;;;0.30;99.90;;;;;;4890012;29;20036;-68
2022/12/09 09:50:32;;;;;;;26.25;13.82;;;-0.10;99.90;;;;;;4896360;29;20022;-68
2022/12/09 09:53:08;;;;;;;25.08;14.25;;;-0.10;99.90;;;;;;4909911;29;20119;-68
2022/12/09 09:55:51;;;;;;;26.30;13.98;;;-0.10;99.90;;;;;;4894637;29;20063;-68
2022/12/09 09:58:47;;;;;;;25.65;13.82;;;0.00;99.90;;;;;;4895763;29;20490;-68
2022/12/09 10:01:16;;;;;;;28.73;15.27;;;0.00;99.90;;;;;;4880132;29;20160;-69
2022/12/09 10:03:59;;;;;;;22.90;12.00;;;0.20;99.90;;;;;;4881776;29;20074;-68
2022/12/09 10:06:34;;;;;;;21.88;12.30;;;-0.20;99.90;;;;;;4892075;29;20044;-68
2022/12/09 10:09:20;;;;;;;25.65;14.05;;;-0.20;99.90;;;;;;4876596;29;20104;-68
2022/12/09 10:11:53;;;;;;;27.00;14.82;;;0.20;99.90;;;;;;4890395;29;20144;-68
2022/12/09 10:14:26;;;;;;;27.52;14.27;;;0.10;99.90;;;;;;4887967;29;20402;-68
2022/12/09 10:17:18;;;;;;;27.88;14.40;;;0.20;99.90;;;;;;4895772;29;20127;-68
2022/12/09 10:19:49;;;;;;;28.13;13.55;;;0.30;99.90;;;;;;4908377;29;20039;-68
2022/12/09 10:22:19;;;;;;;22.67;12.25;;;-0.10;99.90;;;;;;4911396;29;20155;-68
2022/12/09 10:24:51;;;;;;;22.33;11.80;;;-0.10;99.90;;;;;;4910136;29;20036;-68
2022/12/09 10:27:58;;;;;;;25.65;12.75;;;0.10;99.90;;;;;;4896456;29;20048;-68
2022/12/09 10:30:24;;;;;;;25.50;13.13;;;0.40;99.90;;;;;;4890467;29;20060;-68
2022/12/09 10:32:52;;;;;;;22.75;12.85;;;0.00;99.90;;;;;;4893863;29;20043;-68
2022/12/09 10:35:24;;;;;;;21.40;11.90;;;-0.10;99.90;;;;;;4888277;29;20048;-68
2022/12/09 10:37:51;;;;;;;22.15;11.88;;;0.40;99.90;;;;;;4913359;29;20058;-68
2022/12/09 10:40:20;;;;;;;28.73;14.77;;;0.40;99.90;;;;;;4896493;29;20520;-68
2022/12/09 10:45:48;;;;;;;25.77;14.50;;;0.00;99.90;;;;;;4915878;29;20486;-68
2022/12/09 10:48:36;;;;;;;25.58;14.38;;;0.00;99.90;;;;;;4899178;29;20395;-67
2022/12/09 10:51:11;;;;;;;24.88;13.15;;;0.30;99.90;;;;;;4916447;29;20512;-67
2022/12/09 10:53:57;;;;;;;23.05;12.95;;;-0.10;99.90;;;;;;4899488;29;20051;-68
2022/12/09 10:56:28;;;;;;;22.98;12.38;;;0.40;99.90;;;;;;4917477;29;20055;-67
2022/12/09 10:59:14;;;;;;;21.75;10.77;;;0.10;99.90;;;;;;4898859;29;20071;-67
2022/12/09 11:01:49;;;;;;;21.67;11.25;;;0.40;99.90;;;;;;4872719;29;20080;-66
2022/12/09 11:04:24;;;;;;;21.77;11.63;;;0.00;99.90;;;;;;4899379;29;20052;-67
2022/12/09 11:06:51;;;;;;;20.85;11.18;;;0.30;99.90;;;;;;4897042;29;20118;-67
2022/12/09 11:09:31;;;;;;;22.05;12.45;;;0.50;99.90;;;;;;4899082;29;20075;-69
2022/12/09 11:11:58;;;;;;;25.38;13.10;;;0.20;99.90;;;;;;4916812;29;20415;-69
2022/12/09 11:14:30;;;;;;;;;;;0.00;99.90;;;;;;4909521;29;20036;-69
2022/12/09 11:17:36;;;;;;;21.15;11.20;;;-0.10;99.90;;;;;;4916961;29;19983;-69
2022/12/09 11:20:04;;;;;;;23.40;12.43;;;0.40;99.90;;;;;;4894365;29;20052;-69
2022/12/09 11:22:38;;;;;;;23.42;13.20;;;0.10;99.90;;;;;;4914041;29;20044;-69
2022/12/09 11:25:16;;;;;;;26.85;14.10;;;0.00;99.90;;;;;;4911726;29;20052;-69
2022/12/09 11:28:00;;;;;;;27.58;14.25;;;0.10;99.90;;;;;;4882848;29;20048;-69
2022/12/09 11:30:51;;;;;;;23.35;12.55;;;0.10;99.90;;;;;;4894361;29;20127;-69
2022/12/09 11:33:29;;;;;;;21.13;12.30;;;0.50;99.90;;;;;;4881530;29;20478;-70
2022/12/09 11:36:16;;;;;;;21.00;11.93;;;0.20;99.90;;;;;;4896672;29;20378;-69
2022/12/09 11:38:45;;;;;;;21.40;11.60;;;0.10;99.90;;;;;;4896402;29;20048;-71
2022/12/09 11:41:10;;;;;;;20.88;11.07;;;0.10;99.90;;;;;;4897356;29;20115;-70
2022/12/09 11:43:54;;;;;;;20.65;10.90;;;0.30;99.90;;;;;;4899695;29;20390;-70
2022/12/09 11:46:40;;;;;;;24.38;12.48;;;0.60;99.90;;;;;;4899433;29;20123;-70
2022/12/09 11:49:16;;;;;;;29.60;15.90;;;0.30;99.90;;;;;;4897777;29;20048;-70
2022/12/09 11:51:57;;;;;;;25.73;13.32;;;0.70;99.90;;;;;;4914333;29;20040;-71
2022/12/09 11:54:30;;;;;;;24.83;13.00;;;0.40;99.90;;;;;;4897403;29;20052;-75
2022/12/09 11:56:57;;;;;;;21.52;11.10;;;0.70;99.90;;;;;;4896945;29;20405;-73
2022/12/09 11:59:30;;;;;;;24.52;12.70;;;0.80;99.90;;;;;;4915273;29;20055;-72
2022/12/09 12:02:32;;;;;;;20.00;11.30;;;0.40;99.90;;;;;;4898281;29;20112;-72
2022/12/09 12:05:28;;;;;;;26.00;13.68;;;0.60;99.90;;;;;;4898028;29;20043;-71
2022/12/09 12:08:08;;;;;;;27.38;14.45;;;0.50;99.90;;;;;;4891274;29;20515;-68
2022/12/09 12:10:39;;;;;;;30.33;15.43;;;0.40;99.90;;;;;;4896974;29;20075;-67
2022/12/09 12:13:35;;;;;;;28.80;15.27;;;0.50;99.90;;;;;;4893838;29;20540;-68
2022/12/09 12:16:13;;;;;;;29.95;15.35;;;0.70;99.90;;;;;;4879448;29;20453;-67
2022/12/09 12:18:52;;;;;;;24.98;13.40;;;0.90;99.90;;;;;;4893078;29;20048;-68
2022/12/09 12:21:24;;;;;;;26.15;13.27;;;0.50;99.90;;;;;;4895929;29;20051;-68
2022/12/09 12:24:15;;;;;;;27.23;14.45;;;0.50;99.90;;;;;;4894528;29;20048;-67
2022/12/09 12:26:58;;;;;;;31.40;15.48;;;0.70;99.90;;;;;;4909235;29;20060;-69
2022/12/09 12:29:32;;;;;;;24.38;14.10;;;0.90;99.90;;;;;;4909937;29;20166;-73
2022/12/09 12:32:22;;;;;;;27.23;14.00;;;0.60;99.90;;;;;;4895116;29;20054;-71
2022/12/09 12:34:56;;;;;;;23.67;12.00;;;0.40;99.90;;;;;;4878322;29;20051;-72
2022/12/09 12:37:43;;;;;;;20.02;11.15;;;0.90;99.90;;;;;;4890677;29;20084;-68
2022/12/09 12:40:27;;;;;;;28.63;15.50;;;0.50;99.90;;;;;;4899104;29;20237;-71
2022/12/09 12:46:36;;;;;;;26.80;14.35;;;0.80;99.90;;;;;;4897240;29;20462;-71
2022/12/09 12:49:14;;;;;;;29.02;14.93;;;0.60;99.90;;;;;;4899837;29;20138;-70
2022/12/09 12:51:48;;;;;;;28.00;14.90;;;0.70;99.90;;;;;;4914846;29;20040;-70
2022/12/09 12:54:20;;;;;;;35.42;17.08;;;0.80;99.90;;;;;;4882400;29;20047;-70
2022/12/09 12:56:55;;;;;;;30.00;15.52;;;0.60;99.90;;;;;;4898444;29;20048;-70
2022/12/09 12:59:53;;;;;;;31.08;16.73;;;0.60;99.90;;;;;;4897267;29;20111;-70
2022/12/09 13:02:31;;;;;;;29.65;15.13;;;0.50;99.90;;;;;;4882780;29;20060;-70
2022/12/09 13:05:02;;;;;;;26.77;12.88;;;0.70;99.90;;;;;;4897660;29;20232;-70
2022/12/09 13:07:28;;;;;;;26.15;13.57;;;0.60;99.90;;;;;;4897898;29;20055;-71
2022/12/09 13:10:16;;;;;;;28.13;14.27;;;0.70;99.90;;;;;;4898187;29;20044;-71